Midway, South Dakota
Current Conditions -  °F | °C
As of 3:35 PM on Saturday 22 Nov 2014 (Local Time) from KYKN Reporting Station
Clear Clear  
Wind Chill: 52°   Ceiling: Unl
Heat Index: 52°   Visibility: 10mi
Dew Point: 36°   Wind: 16mph
Humidity: 54%   Direction: 180°S
Pressure: 29.52"   Gusts: NA
Location:  43.1951°N, 97.1515°W
Report Text: KYKN 222135Z AUTO 18014KT 10SM CLR 11/02 A2952 RMK AO1
Loading
Personal Weather Stations






























Interactive Weather Map New forecast layout! Learn more

10-Day Weather Forecast

Advertisements
Track Severe Weather on mobile